Wilton, Missouri
Current Conditions -  °F | °C
As of 9:54 PM on Friday 28 Nov 2014 (Local Time) from KCOU Reporting Station
Clear Clear  
Wind Chill: 43°   Ceiling: Unl
Heat Index: 48°   Visibility: 10mi
Dew Point: 35°   Wind: 13mph
Humidity: 61%   Direction: 180°S
Pressure: 29.83"   Gusts: NA
Location:  38.7092°N, 92.2897°W
Report Text: KCOU 290354Z AUTO 18011KT 10SM CLR 09/02 A2983 RMK AO2 SLP101 T00890017
Loading
Personal Weather Stations






























Interactive Weather Map New forecast layout! Learn more

10-Day Weather Forecast

Advertisements
Track Severe Weather on mobile